Map

Track Data

SID SEASON NUMBER BASIN SUBBASIN NAME ISO_TIME NATURE LAT LON WMO_WIND WMO_PRES WMO_AGENCY TRACK_TYPE DIST2LAND LANDFALL IFLAG USA_AGENCY USA_ATCF_ID USA_LAT USA_LON USA_RECORD USA_STATUS USA_WIND USA_PRES USA_SSHS USA_R34_NE USA_R34_SE USA_R34_SW USA_R34_NW USA_R50_NE USA_R50_SE USA_R50_SW USA_R50_NW USA_R64_NE USA_R64_SE USA_R64_SW USA_R64_NW USA_POCI USA_ROCI USA_RMW USA_EYE TOKYO_LAT TOKYO_LON TOKYO_GRADE TOKYO_WIND TOKYO_PRES TOKYO_R50_DIR TOKYO_R50_LONG TOKYO_R50_SHORT TOKYO_R30_DIR TOKYO_R30_LONG TOKYO_R30_SHORT TOKYO_LAND CMA_LAT CMA_LON CMA_CAT CMA_WIND CMA_PRES HKO_LAT HKO_LON HKO_CAT HKO_WIND HKO_PRES NEWDELHI_LAT NEWDELHI_LON NEWDELHI_GRADE NEWDELHI_WIND NEWDELHI_PRES NEWDELHI_CI NEWDELHI_DP NEWDELHI_POCI REUNION_LAT REUNION_LON REUNION_TYPE REUNION_WIND REUNION_PRES REUNION_TNUM REUNION_CI REUNION_RMW REUNION_R34_NE REUNION_R34_SE REUNION_R34_SW REUNION_R34_NW REUNION_R50_NE REUNION_R50_SE REUNION_R50_SW REUNION_R50_NW REUNION_R64_NE REUNION_R64_SE REUNION_R64_SW REUNION_R64_NW BOM_LAT BOM_LON BOM_TYPE BOM_WIND BOM_PRES BOM_TNUM BOM_CI BOM_RMW BOM_R34_NE BOM_R34_SE BOM_R34_SW BOM_R34_NW BOM_R50_NE BOM_R50_SE BOM_R50_SW BOM_R50_NW BOM_R64_NE BOM_R64_SE BOM_R64_SW BOM_R64_NW BOM_ROCI BOM_POCI BOM_EYE BOM_POS_METHOD BOM_PRES_METHOD NADI_LAT NADI_LON NADI_CAT NADI_WIND NADI_PRES WELLINGTON_LAT WELLINGTON_LON WELLINGTON_WIND WELLINGTON_PRES DS824_LAT DS824_LON DS824_STAGE DS824_WIND DS824_PRES TD9636_LAT TD9636_LON TD9636_STAGE TD9636_WIND TD9636_PRES TD9635_LAT TD9635_LON TD9635_WIND TD9635_PRES TD9635_ROCI NEUMANN_LAT NEUMANN_LON NEUMANN_CLASS NEUMANN_WIND NEUMANN_PRES MLC_LAT MLC_LON MLC_CLASS MLC_WIND MLC_PRES USA_GUST BOM_GUST BOM_GUST_PER REUNION_GUST REUNION_GUST_PER USA_SEAHGT USA_SEARAD_NE USA_SEARAD_SE USA_SEARAD_SW USA_SEARAD_NW STORM_SPEED STORM_DIR
1925241N10145 1925 43 WP MM NOT_NAMED 1925-08-28 22:00:00 NR 10.2000 145.000 main 1389 1389 __________O___ -1 10.2000 145.000 4 5 0
1925241N10145 1925 43 WP MM NOT_NAMED 1925-08-29 00:00:00 NR 10.3785 145.022 main 1411 1411 __________P___ -1 10.3785 145.022 4 5 6
1925241N10145 1925 43 WP MM NOT_NAMED 1925-08-29 03:00:00 NR 10.6419 145.046 main 1434 1443 __________P___ -1 10.6419 145.046 4 5 3
1925241N10145 1925 43 WP MM NOT_NAMED 1925-08-29 06:00:00 NR 10.8938 145.049 main 1467 1467 __________P___ -1 10.8938 145.049 4 5 357
1925241N10145 1925 43 WP MM NOT_NAMED 1925-08-29 09:00:00 NR 11.1274 145.019 main 1489 1489 __________P___ -1 11.1274 145.019 4 5 352
1925241N10145 1925 43 WP MM NOT_NAMED 1925-08-29 10:00:00 NR 11.2000 145.000 main 1500 1500 __________O___ -1 11.2000 145.000 4 4 342
1925241N10145 1925 43 WP MM NOT_NAMED 1925-08-29 12:00:00 NR 11.3374 144.946 main 1513 1513 __________P___ -1 11.3374 144.946 4 4 335
1925241N10145 1925 43 WP MM NOT_NAMED 1925-08-29 15:00:00 NR 11.5367 144.839 main 1536 1536 __________P___ -1 11.5367 144.839 4 5 332
1925241N10145 1925 43 WP MM NOT_NAMED 1925-08-29 18:00:00 NR 11.7502 144.724 main 1571 1571 __________P___ -1 11.7502 144.724 4 5 336
1925241N10145 1925 43 WP MM NOT_NAMED 1925-08-29 21:00:00 NR 12.0028 144.625 main 1595 1595 __________P___ -1 12.0028 144.625 4 6 341
1925241N10145 1925 43 WP MM NOT_NAMED 1925-08-29 22:00:00 NR 12.1000 144.600 main 1606 1606 __________O___ -1 12.1000 144.600 4 7 350
1925241N10145 1925 43 WP MM NOT_NAMED 1925-08-30 00:00:00 NR 12.3267 144.572 main 1628 1628 __________P___ -1 12.3267 144.572 4 7 357
1925241N10145 1925 43 WP MM NOT_NAMED 1925-08-30 03:00:00 NR 12.7109 144.555 main 1672 1672 __________P___ -1 12.7109 144.555 4 8 359
1925241N10145 1925 43 WP MM NOT_NAMED 1925-08-30 06:00:00 NR 13.1287 144.562 main 1717 1728 __________P___ -1 13.1287 144.562 4 9 2
1925241N10145 1925 43 WP MM NOT_NAMED 1925-08-30 09:00:00 NR 13.5581 144.588 main 1772 1772 __________P___ -1 13.5581 144.588 4 9 5
1925241N10145 1925 43 WP MM NOT_NAMED 1925-08-30 10:00:00 NR 13.7000 144.600 main 1783 1783 __________O___ -1 13.7000 144.600 4 8 10
1925241N10145 1925 43 WP MM NOT_NAMED 1925-08-30 12:00:00 NR 13.9614 144.653 main 1815 1815 __________P___ -1 13.9614 144.653 4 8 12
1925241N10145 1925 43 WP MM NOT_NAMED 1925-08-30 15:00:00 NR 14.3533 144.746 main 1860 1859 __________P___ -1 14.3533 144.746 4 8 11
1925241N10145 1925 43 WP MM NOT_NAMED 1925-08-30 18:00:00 NR 14.7507 144.816 main 1903 1903 __________P___ -1 14.7507 144.816 4 8 5
1925241N10145 1925 43 WP MM NOT_NAMED 1925-08-30 21:00:00 NR 15.1599 144.821 main 1948 1948 __________P___ -1 15.1599 144.821 4 8 358
1925241N10145 1925 43 WP MM NOT_NAMED 1925-08-30 22:00:00 NR 15.3000 144.800 main 1959 1959 __________O___ -1 15.3000 144.800 7 9 347
1925241N10145 1925 43 WP MM NOT_NAMED 1925-08-31 00:00:00 NR 15.5964 144.720 main 1993 1993 __________P___ -1 15.5964 144.720 7 10 341
1925241N10145 1925 43 WP MM NOT_NAMED 1925-08-31 03:00:00 NR 16.0537 144.525 main 2051 2051 __________P___ -1 16.0537 144.525 7 10 334
1925241N10145 1925 43 WP MM NOT_NAMED 1925-08-31 06:00:00 NR 16.5126 144.254 main 2071 2003 __________P___ -1 16.5126 144.254 7 11 327
1925241N10145 1925 43 WP MM NOT_NAMED 1925-08-31 09:00:00 NR 16.9575 143.922 main 2003 1988 __________P___ -1 16.9575 143.922 7 11 324
1925241N10145 1925 43 WP MM NOT_NAMED 1925-08-31 10:00:00 NR 17.1000 143.800 main 1988 1949 __________O___ -1 17.1000 143.800 7 11 321
1925241N10145 1925 43 WP MM NOT_NAMED 1925-08-31 12:00:00 NR 17.3802 143.565 main 1949 1892 __________P___ -1 17.3802 143.565 7 11 318
1925241N10145 1925 43 WP MM NOT_NAMED 1925-08-31 15:00:00 NR 17.7819 143.167 main 1892 1831 __________P___ -1 17.7819 143.167 7 11 314
1925241N10145 1925 43 WP MM NOT_NAMED 1925-08-31 18:00:00 NR 18.1556 142.728 main 1831 1785 __________P___ -1 18.1556 142.728 7 11 310
1925241N10145 1925 43 WP MM NOT_NAMED 1925-08-31 21:00:00 NR 18.4954 142.260 main 1785 1767 __________P___ -1 18.4954 142.260 7 11 307
1925241N10145 1925 43 WP MM NOT_NAMED 1925-08-31 22:00:00 NR 18.6000 142.100 main 1767 1736 __________O___ -1 18.6000 142.100 7 11 304
1925241N10145 1925 43 WP MM NOT_NAMED 1925-09-01 00:00:00 NR 18.8030 141.783 main 1736 1687 __________P___ -1 18.8030 141.783 7 11 302
1925241N10145 1925 43 WP MM NOT_NAMED 1925-09-01 03:00:00 NR 19.0761 141.290 main 1687 1646 __________P___ -1 19.0761 141.290 7 11 299
1925241N10145 1925 43 WP MM NOT_NAMED 1925-09-01 06:00:00 NR 19.3173 140.783 main 1646 1599 __________P___ -1 19.3173 140.783 7 11 295
1925241N10145 1925 43 WP MM NOT_NAMED 1925-09-01 09:00:00 NR 19.5328 140.270 main 1599 1579 __________P___ -1 19.5328 140.270 7 11 294
1925241N10145 1925 43 WP MM NOT_NAMED 1925-09-01 10:00:00 NR 19.6000 140.100 main 1579 1553 __________O___ -1 19.6000 140.100 7 10 293
1925241N10145 1925 43 WP MM NOT_NAMED 1925-09-01 12:00:00 NR 19.7388 139.761 main 1553 1507 __________P___ -1 19.7388 139.761 7 10 292
1925241N10145 1925 43 WP MM NOT_NAMED 1925-09-01 15:00:00 NR 19.9285 139.253 main 1507 1462 __________P___ -1 19.9285 139.253 7 10 291
1925241N10145 1925 43 WP MM NOT_NAMED 1925-09-01 18:00:00 NR 20.0985 138.751 main 1462 1416 __________P___ -1 20.0985 138.751 7 10 289
1925241N10145 1925 43 WP MM NOT_NAMED 1925-09-01 21:00:00 NR 20.2520 138.260 main 1416 1405 __________P___ -1 20.2520 138.260 7 10 288
1925241N10145 1925 43 WP MM NOT_NAMED 1925-09-01 22:00:00 NR 20.3000 138.100 main 1405 1380 __________O___ -1 20.3000 138.100 7 9 288
1925241N10145 1925 43 WP MM NOT_NAMED 1925-09-02 00:00:00 NR 20.3970 137.788 main 1380 1345 __________P___ -1 20.3970 137.788 7 9 288
1925241N10145 1925 43 WP MM NOT_NAMED 1925-09-02 03:00:00 NR 20.5302 137.334 main 1345 1306 __________P___ -1 20.5302 137.334 7 9 287
1925241N10145 1925 43 WP MM NOT_NAMED 1925-09-02 06:00:00 NR 20.6515 136.889 main 1306 1273 __________P___ -1 20.6515 136.889 7 9 286
1925241N10145 1925 43 WP MM NOT_NAMED 1925-09-02 09:00:00 NR 20.7640 136.447 main 1273 1268 __________P___ -1 20.7640 136.447 7 9 285
1925241N10145 1925 43 WP MM NOT_NAMED 1925-09-02 10:00:00 NR 20.8000 136.300 main 1268 1245 __________O___ -1 20.8000 136.300 7 9 287
1925241N10145 1925 43 WP MM NOT_NAMED 1925-09-02 12:00:00 NR 20.8877 136.005 main 1245 1219 __________P___ -1 20.8877 136.005 7 9 287
1925241N10145 1925 43 WP MM NOT_NAMED 1925-09-02 15:00:00 NR 21.0136 135.564 main 1219 1189 __________P___ -1 21.0136 135.564 7 9 286
1925241N10145 1925 43 WP MM NOT_NAMED 1925-09-02 18:00:00 NR 21.1188 135.116 main 1189 1164 __________P___ -1 21.1188 135.116 7 9 282
1925241N10145 1925 43 WP MM NOT_NAMED 1925-09-02 21:00:00 NR 21.1878 134.657 main 1164 1158 __________P___ -1 21.1878 134.657 7 9 278
1925241N10145 1925 43 WP MM NOT_NAMED 1925-09-02 22:00:00 NR 21.2000 134.500 main 1158 1148 __________O___ -1 21.2000 134.500 7 9 267
1925241N10145 1925 43 WP MM NOT_NAMED 1925-09-03 00:00:00 NR 21.1640 134.177 main 1148 1145 __________P___ -1 21.1640 134.177 7 9 260
1925241N10145 1925 43 WP MM NOT_NAMED 1925-09-03 03:00:00 NR 21.0715 133.680 main 1145 1142 __________P___ -1 21.0715 133.680 7 10 259
1925241N10145 1925 43 WP MM NOT_NAMED 1925-09-03 06:00:00 NR 20.9883 133.175 main 1144 1126 __________P___ -1 20.9883 133.175 7 9 264
1925241N10145 1925 43 WP MM NOT_NAMED 1925-09-03 09:00:00 NR 20.9770 132.668 main 1126 1106 __________P___ -1 20.9770 132.668 7 9 271
1925241N10145 1925 43 WP MM NOT_NAMED 1925-09-03 10:00:00 NR 21.0000 132.500 main 1106 1078 __________O___ -1 21.0000 132.500 7 10 287
1925241N10145 1925 43 WP MM NOT_NAMED 1925-09-03 12:00:00 NR 21.1253 132.155 main 1078 1028 __________P___ -1 21.1253 132.155 7 11 296
1925241N10145 1925 43 WP MM NOT_NAMED 1925-09-03 15:00:00 NR 21.4017 131.636 main 1028 990 __________P___ -1 21.4017 131.636 7 11 303
1925241N10145 1925 43 WP MM NOT_NAMED 1925-09-03 18:00:00 NR 21.7398 131.129 main 990 937 __________P___ -1 21.7398 131.129 7 11 307
1925241N10145 1925 43 WP MM NOT_NAMED 1925-09-03 21:00:00 NR 22.0895 130.650 main 937 914 __________P___ -1 22.0895 130.650 7 11 308
1925241N10145 1925 43 WP MM NOT_NAMED 1925-09-03 22:00:00 NR 22.2000 130.500 main 914 878 __________O___ -1 22.2000 130.500 3 10 302
1925241N10145 1925 43 WP MM NOT_NAMED 1925-09-04 00:00:00 NR 22.3543 130.197 main 878 832 __________P___ -1 22.3543 130.197 3 9 299
1925241N10145 1925 43 WP MM NOT_NAMED 1925-09-04 03:00:00 NR 22.5728 129.775 main 832 786 __________P___ -1 22.5728 129.775 3 9 302
1925241N10145 1925 43 WP MM NOT_NAMED 1925-09-04 06:00:00 NR 22.8063 129.401 main 786 748 __________P___ -1 22.8063 129.401 3 8 309
1925241N10145 1925 43 WP MM NOT_NAMED 1925-09-04 09:00:00 NR 23.0889 129.088 main 748 736 __________P___ -1 23.0889 129.088 3 8 317
1925241N10145 1925 43 WP MM NOT_NAMED 1925-09-04 10:00:00 NR 23.2000 129.000 main 736 708 __________O___ -1 23.2000 129.000 4 9 329
1925241N10145 1925 43 WP MM NOT_NAMED 1925-09-04 12:00:00 NR 23.4807 128.835 main 708 676 __________P___ -1 23.4807 128.835 4 10 337
1925241N10145 1925 43 WP MM NOT_NAMED 1925-09-04 15:00:00 NR 23.9591 128.645 main 676 658 __________P___ -1 23.9591 128.645 4 10 343
1925241N10145 1925 43 WP MM NOT_NAMED 1925-09-04 18:00:00 NR 24.4648 128.512 main 658 644 __________P___ -1 24.4648 128.512 4 10 348
1925241N10145 1925 43 WP MM NOT_NAMED 1925-09-04 21:00:00 NR 24.9506 128.422 main 644 644 __________P___ -1 24.9506 128.422 4 10 350
1925241N10145 1925 43 WP MM NOT_NAMED 1925-09-04 22:00:00 NR 25.1000 128.400 main 644 644 __________O___ -1 25.1000 128.400 4 8 351
1925241N10145 1925 43 WP MM NOT_NAMED 1925-09-05 00:00:00 NR 25.3534 128.365 main 644 635 __________P___ -1 25.3534 128.365 4 7 354
1925241N10145 1925 43 WP MM NOT_NAMED 1925-09-05 03:00:00 NR 25.6959 128.344 main 636 605 __________P___ -1 25.6959 128.344 4 7 359
1925241N10145 1925 43 WP MM NOT_NAMED 1925-09-05 06:00:00 NR 26.0070 128.337 main 605 574 __________P___ -1 26.0070 128.337 4 6 359
1925241N10145 1925 43 WP MM NOT_NAMED 1925-09-05 09:00:00 NR 26.3023 128.315 main 574 564 __________P___ -1 26.3023 128.315 4 6 353
1925241N10145 1925 43 WP MM NOT_NAMED 1925-09-05 10:00:00 NR 26.4000 128.300 main 564 543 __________O___ -1 26.4000 128.300 4 6 350
1925241N10145 1925 43 WP MM NOT_NAMED 1925-09-05 12:00:00 NR 26.5967 128.253 main 543 517 __________P___ -1 26.5967 128.253 4 6 344
1925241N10145 1925 43 WP MM NOT_NAMED 1925-09-05 15:00:00 NR 26.8951 128.147 main 521 494 __________P___ -1 26.8951 128.147 4 6 340
1925241N10145 1925 43 WP MM NOT_NAMED 1925-09-05 18:00:00 NR 27.1963 128.009 main 494 469 __________P___ -1 27.1963 128.009 4 7 337
1925241N10145 1925 43 WP MM NOT_NAMED 1925-09-05 21:00:00 NR 27.4990 127.854 main 469 464 __________P___ -1 27.4990 127.854 4 7 335
1925241N10145 1925 43 WP MM NOT_NAMED 1925-09-05 22:00:00 NR 27.6000 127.800 main 464 __________O___ -1 27.6000 127.800 4 7 334

Digital Typhoon Data and Search

About IBTrACS Database

This database is a web-friendly format of International Best Track Archive for Climate Stewardship (IBTrACS), a global best track data archive curated by NOAA dating back to 1842.

Updated: 2021-10-21